sensor_id;sensor_type;location;lat;lon;timestamp;P1;durP1;ratioP1;P2;durP2;ratioP2
1206;SDS011;593;53.184;8.216;2023-02-15T00:01:38;20.20;;;13.70;;
1206;SDS011;593;53.184;8.216;2023-02-15T00:04:04;14.13;;;12.63;;
1206;SDS011;593;53.184;8.216;2023-02-15T00:06:30;18.55;;;13.73;;
1206;SDS011;593;53.184;8.216;2023-02-15T00:08:56;16.10;;;12.73;;
1206;SDS011;593;53.184;8.216;2023-02-15T00:11:22;15.90;;;12.20;;
1206;SDS011;593;53.184;8.216;2023-02-15T00:16:38;18.35;;;13.45;;
1206;SDS011;593;53.184;8.216;2023-02-15T00:19:05;18.20;;;12.50;;
1206;SDS011;593;53.184;8.216;2023-02-15T00:21:32;16.92;;;13.35;;
1206;SDS011;593;53.184;8.216;2023-02-15T00:23:59;18.80;;;13.73;;
1206;SDS011;593;53.184;8.216;2023-02-15T00:26:26;16.23;;;12.55;;
1206;SDS011;593;53.184;8.216;2023-02-15T00:28:51;19.00;;;13.70;;
1206;SDS011;593;53.184;8.216;2023-02-15T00:31:17;15.73;;;13.02;;
1206;SDS011;593;53.184;8.216;2023-02-15T00:33:43;20.03;;;13.17;;
1206;SDS011;593;53.184;8.216;2023-02-15T00:36:09;19.70;;;12.73;;
1206;SDS011;593;53.184;8.216;2023-02-15T00:38:35;17.33;;;13.02;;
1206;SDS011;593;53.184;8.216;2023-02-15T00:41:02;16.85;;;12.30;;
1206;SDS011;593;53.184;8.216;2023-02-15T00:43:30;17.45;;;13.57;;
1206;SDS011;593;53.184;8.216;2023-02-15T00:45:56;20.45;;;13.63;;
1206;SDS011;593;53.184;8.216;2023-02-15T00:48:22;25.15;;;13.65;;
1206;SDS011;593;53.184;8.216;2023-02-15T00:50:52;19.30;;;13.07;;
1206;SDS011;593;53.184;8.216;2023-02-15T00:53:19;20.92;;;14.55;;
1206;SDS011;593;53.184;8.216;2023-02-15T00:55:45;22.90;;;14.83;;
1206;SDS011;593;53.184;8.216;2023-02-15T00:58:10;15.70;;;12.30;;
1206;SDS011;593;53.184;8.216;2023-02-15T01:00:37;15.40;;;11.50;;
1206;SDS011;593;53.184;8.216;2023-02-15T01:03:04;16.58;;;11.65;;
1206;SDS011;593;53.184;8.216;2023-02-15T01:05:30;15.77;;;12.73;;
1206;SDS011;593;53.184;8.216;2023-02-15T01:07:57;14.20;;;11.68;;
1206;SDS011;593;53.184;8.216;2023-02-15T01:10:24;15.95;;;11.35;;
1206;SDS011;593;53.184;8.216;2023-02-15T01:12:50;15.05;;;11.30;;
1206;SDS011;593;53.184;8.216;2023-02-15T01:15:17;17.63;;;11.93;;
1206;SDS011;593;53.184;8.216;2023-02-15T01:17:42;11.13;;;9.27;;
1206;SDS011;593;53.184;8.216;2023-02-15T01:20:10;14.73;;;10.85;;
1206;SDS011;593;53.184;8.216;2023-02-15T01:22:36;12.90;;;9.80;;
1206;SDS011;593;53.184;8.216;2023-02-15T01:25:02;13.73;;;10.03;;
1206;SDS011;593;53.184;8.216;2023-02-15T01:27:28;12.93;;;10.47;;
1206;SDS011;593;53.184;8.216;2023-02-15T01:29:55;11.18;;;10.00;;
1206;SDS011;593;53.184;8.216;2023-02-15T01:32:20;12.50;;;9.03;;
1206;SDS011;593;53.184;8.216;2023-02-15T01:34:46;14.47;;;10.20;;
1206;SDS011;593;53.184;8.216;2023-02-15T01:37:11;10.73;;;8.50;;
1206;SDS011;593;53.184;8.216;2023-02-15T01:39:36;10.17;;;9.13;;
1206;SDS011;593;53.184;8.216;2023-02-15T01:42:02;10.13;;;8.93;;
1206;SDS011;593;53.184;8.216;2023-02-15T01:47:13;10.70;;;8.65;;
1206;SDS011;593;53.184;8.216;2023-02-15T01:49:41;10.98;;;8.05;;
1206;SDS011;593;53.184;8.216;2023-02-15T01:52:10;8.70;;;7.80;;
1206;SDS011;593;53.184;8.216;2023-02-15T01:54:38;10.05;;;8.65;;
1206;SDS011;593;53.184;8.216;2023-02-15T01:57:07;11.02;;;8.27;;
1206;SDS011;593;53.184;8.216;2023-02-15T01:59:37;8.85;;;7.95;;
1206;SDS011;593;53.184;8.216;2023-02-15T02:02:05;10.30;;;8.00;;
1206;SDS011;593;53.184;8.216;2023-02-15T02:04:45;8.80;;;7.65;;
1206;SDS011;593;53.184;8.216;2023-02-15T02:07:14;7.80;;;7.10;;
1206;SDS011;593;53.184;8.216;2023-02-15T02:09:44;8.20;;;7.45;;
1206;SDS011;593;53.184;8.216;2023-02-15T02:12:10;8.60;;;7.55;;
1206;SDS011;593;53.184;8.216;2023-02-15T02:14:36;8.63;;;7.65;;
1206;SDS011;593;53.184;8.216;2023-02-15T02:17:16;9.25;;;8.20;;
1206;SDS011;593;53.184;8.216;2023-02-15T02:28:22;7.43;;;6.72;;
1206;SDS011;593;53.184;8.216;2023-02-15T02:41:50;8.48;;;7.40;;
1206;SDS011;593;53.184;8.216;2023-02-15T02:47:05;11.52;;;7.25;;
1206;SDS011;593;53.184;8.216;2023-02-15T02:49:41;9.75;;;7.78;;
1206;SDS011;593;53.184;8.216;2023-02-15T02:52:34;13.85;;;8.80;;
1206;SDS011;593;53.184;8.216;2023-02-15T02:55:05;21.90;;;10.43;;
1206;SDS011;593;53.184;8.216;2023-02-15T02:57:35;14.88;;;8.80;;
1206;SDS011;593;53.184;8.216;2023-02-15T03:00:06;19.02;;;8.60;;
1206;SDS011;593;53.184;8.216;2023-02-15T03:02:35;22.95;;;8.88;;
1206;SDS011;593;53.184;8.216;2023-02-15T03:05:06;12.18;;;8.52;;
1206;SDS011;593;53.184;8.216;2023-02-15T03:07:36;10.80;;;7.45;;
1206;SDS011;593;53.184;8.216;2023-02-15T03:10:04;8.30;;;6.75;;
1206;SDS011;593;53.184;8.216;2023-02-15T03:12:34;11.32;;;7.07;;
1206;SDS011;593;53.184;8.216;2023-02-15T03:15:06;9.93;;;7.32;;
1206;SDS011;593;53.184;8.216;2023-02-15T03:17:46;14.45;;;6.80;;
1206;SDS011;593;53.184;8.216;2023-02-15T03:20:24;13.80;;;7.63;;
1206;SDS011;593;53.184;8.216;2023-02-15T03:23:03;15.68;;;8.35;;
1206;SDS011;593;53.184;8.216;2023-02-15T03:25:33;13.48;;;7.65;;
1206;SDS011;593;53.184;8.216;2023-02-15T03:28:03;9.30;;;7.47;;
1206;SDS011;593;53.184;8.216;2023-02-15T03:30:31;10.15;;;7.00;;
1206;SDS011;593;53.184;8.216;2023-02-15T03:32:59;15.00;;;8.80;;
1206;SDS011;593;53.184;8.216;2023-02-15T03:35:30;11.98;;;6.40;;
1206;SDS011;593;53.184;8.216;2023-02-15T03:38:19;15.65;;;8.35;;
1206;SDS011;593;53.184;8.216;2023-02-15T03:40:51;12.00;;;6.40;;
1206;SDS011;593;53.184;8.216;2023-02-15T03:46:15;14.27;;;6.80;;
1206;SDS011;593;53.184;8.216;2023-02-15T03:48:49;14.18;;;7.50;;
1206;SDS011;593;53.184;8.216;2023-02-15T03:51:23;13.13;;;8.00;;
1206;SDS011;593;53.184;8.216;2023-02-15T03:54:03;10.82;;;7.35;;
1206;SDS011;593;53.184;8.216;2023-02-15T03:56:29;9.05;;;6.78;;
1206;SDS011;593;53.184;8.216;2023-02-15T03:58:55;7.45;;;6.55;;
1206;SDS011;593;53.184;8.216;2023-02-15T04:02:24;14.27;;;7.70;;
1206;SDS011;593;53.184;8.216;2023-02-15T04:04:46;8.15;;;5.63;;
1206;SDS011;593;53.184;8.216;2023-02-15T04:07:12;9.70;;;6.45;;
1206;SDS011;593;53.184;8.216;2023-02-15T04:09:38;16.40;;;7.60;;
1206;SDS011;593;53.184;8.216;2023-02-15T04:12:22;14.80;;;8.00;;
1206;SDS011;593;53.184;8.216;2023-02-15T04:14:48;8.63;;;7.73;;
1206;SDS011;593;53.184;8.216;2023-02-15T04:17:31;11.23;;;8.50;;
1206;SDS011;593;53.184;8.216;2023-02-15T04:19:57;24.57;;;9.13;;
1206;SDS011;593;53.184;8.216;2023-02-15T04:22:41;16.92;;;8.80;;
1206;SDS011;593;53.184;8.216;2023-02-15T04:25:25;16.00;;;9.30;;
1206;SDS011;593;53.184;8.216;2023-02-15T04:27:51;18.00;;;8.97;;
1206;SDS011;593;53.184;8.216;2023-02-15T04:30:20;15.10;;;8.27;;
1206;SDS011;593;53.184;8.216;2023-02-15T04:32:47;10.80;;;7.07;;
1206;SDS011;593;53.184;8.216;2023-02-15T04:35:13;17.53;;;8.10;;
1206;SDS011;593;53.184;8.216;2023-02-15T04:37:40;10.10;;;7.53;;
1206;SDS011;593;53.184;8.216;2023-02-15T04:40:07;9.23;;;7.50;;
1206;SDS011;593;53.184;8.216;2023-02-15T04:42:34;10.18;;;7.95;;
1206;SDS011;593;53.184;8.216;2023-02-15T04:44:59;11.73;;;7.53;;
1206;SDS011;593;53.184;8.216;2023-02-15T04:47:25;18.47;;;8.90;;
1206;SDS011;593;53.184;8.216;2023-02-15T04:49:50;11.97;;;7.50;;
1206;SDS011;593;53.184;8.216;2023-02-15T04:52:16;12.10;;;8.10;;
1206;SDS011;593;53.184;8.216;2023-02-15T04:54:42;16.73;;;8.60;;
1206;SDS011;593;53.184;8.216;2023-02-15T04:57:08;12.80;;;7.97;;
1206;SDS011;593;53.184;8.216;2023-02-15T04:59:34;14.83;;;8.40;;
1206;SDS011;593;53.184;8.216;2023-02-15T05:01:59;15.33;;;10.30;;
1206;SDS011;593;53.184;8.216;2023-02-15T05:04:25;14.10;;;9.70;;
1206;SDS011;593;53.184;8.216;2023-02-15T05:06:50;13.07;;;8.10;;
1206;SDS011;593;53.184;8.216;2023-02-15T05:09:16;12.20;;;8.27;;
1206;SDS011;593;53.184;8.216;2023-02-15T05:11:41;13.00;;;9.57;;
1206;SDS011;593;53.184;8.216;2023-02-15T05:14:07;11.23;;;8.17;;
1206;SDS011;593;53.184;8.216;2023-02-15T05:16:32;12.10;;;8.17;;
1206;SDS011;593;53.184;8.216;2023-02-15T05:18:58;11.87;;;8.23;;
1206;SDS011;593;53.184;8.216;2023-02-15T05:21:23;12.47;;;8.33;;
1206;SDS011;593;53.184;8.216;2023-02-15T05:23:49;10.00;;;7.73;;
1206;SDS011;593;53.184;8.216;2023-02-15T05:26:19;10.93;;;6.70;;
1206;SDS011;593;53.184;8.216;2023-02-15T05:29:06;10.82;;;7.40;;
1206;SDS011;593;53.184;8.216;2023-02-15T05:31:32;11.43;;;7.83;;
1206;SDS011;593;53.184;8.216;2023-02-15T05:33:58;12.20;;;8.30;;
1206;SDS011;593;53.184;8.216;2023-02-15T05:36:25;12.70;;;9.32;;
1206;SDS011;593;53.184;8.216;2023-02-15T05:38:54;11.23;;;9.05;;
1206;SDS011;593;53.184;8.216;2023-02-15T05:41:34;12.10;;;9.43;;
1206;SDS011;593;53.184;8.216;2023-02-15T05:44:02;13.77;;;8.50;;
1206;SDS011;593;53.184;8.216;2023-02-15T05:46:27;11.33;;;8.87;;
1206;SDS011;593;53.184;8.216;2023-02-15T05:48:55;10.20;;;7.90;;
1206;SDS011;593;53.184;8.216;2023-02-15T05:51:22;13.00;;;8.98;;
1206;SDS011;593;53.184;8.216;2023-02-15T05:53:53;13.35;;;9.23;;
1206;SDS011;593;53.184;8.216;2023-02-15T05:56:22;13.45;;;9.40;;
1206;SDS011;593;53.184;8.216;2023-02-15T05:58:47;12.97;;;8.40;;
1206;SDS011;593;53.184;8.216;2023-02-15T06:01:14;11.30;;;9.40;;
1206;SDS011;593;53.184;8.216;2023-02-15T06:03:42;10.82;;;7.15;;
1206;SDS011;593;53.184;8.216;2023-02-15T06:06:08;10.75;;;8.15;;
1206;SDS011;593;53.184;8.216;2023-02-15T06:08:35;13.85;;;8.63;;
1206;SDS011;593;53.184;8.216;2023-02-15T06:11:02;14.77;;;9.20;;
1206;SDS011;593;53.184;8.216;2023-02-15T06:13:29;14.38;;;9.65;;
1206;SDS011;593;53.184;8.216;2023-02-15T06:15:55;13.57;;;8.17;;
1206;SDS011;593;53.184;8.216;2023-02-15T06:18:20;9.73;;;8.73;;
1206;SDS011;593;53.184;8.216;2023-02-15T06:20:46;12.10;;;9.07;;
1206;SDS011;593;53.184;8.216;2023-02-15T06:23:12;16.20;;;9.10;;
1206;SDS011;593;53.184;8.216;2023-02-15T06:25:37;12.17;;;8.50;;
1206;SDS011;593;53.184;8.216;2023-02-15T06:28:03;14.10;;;9.00;;
1206;SDS011;593;53.184;8.216;2023-02-15T06:30:28;11.73;;;8.37;;
1206;SDS011;593;53.184;8.216;2023-02-15T06:32:54;12.27;;;8.60;;
1206;SDS011;593;53.184;8.216;2023-02-15T06:35:19;12.43;;;9.37;;
1206;SDS011;593;53.184;8.216;2023-02-15T06:37:45;12.50;;;9.13;;
1206;SDS011;593;53.184;8.216;2023-02-15T06:40:11;10.32;;;8.18;;
1206;SDS011;593;53.184;8.216;2023-02-15T06:42:37;9.83;;;8.33;;
1206;SDS011;593;53.184;8.216;2023-02-15T06:45:03;10.43;;;7.97;;
1206;SDS011;593;53.184;8.216;2023-02-15T06:47:29;7.97;;;7.22;;
1206;SDS011;593;53.184;8.216;2023-02-15T06:49:54;13.77;;;8.40;;
1206;SDS011;593;53.184;8.216;2023-02-15T07:47:00;10.88;;;9.50;;
1206;SDS011;593;53.184;8.216;2023-02-15T07:49:26;14.97;;;11.10;;
1206;SDS011;593;53.184;8.216;2023-02-15T07:51:51;12.40;;;10.40;;
1206;SDS011;593;53.184;8.216;2023-02-15T07:54:17;12.23;;;9.10;;
1206;SDS011;593;53.184;8.216;2023-02-15T07:56:42;16.47;;;12.13;;
1206;SDS011;593;53.184;8.216;2023-02-15T07:59:08;13.20;;;9.30;;
1206;SDS011;593;53.184;8.216;2023-02-15T08:01:35;13.50;;;9.50;;
1206;SDS011;593;53.184;8.216;2023-02-15T08:04:03;14.55;;;9.55;;
1206;SDS011;593;53.184;8.216;2023-02-15T08:06:31;12.60;;;9.50;;
1206;SDS011;593;53.184;8.216;2023-02-15T08:08:58;14.70;;;10.85;;
1206;SDS011;593;53.184;8.216;2023-02-15T08:11:25;16.15;;;11.82;;
1206;SDS011;593;53.184;8.216;2023-02-15T08:16:41;12.73;;;10.25;;
1206;SDS011;593;53.184;8.216;2023-02-15T08:21:37;17.25;;;12.35;;
1206;SDS011;593;53.184;8.216;2023-02-15T08:24:04;17.85;;;13.30;;
1206;SDS011;593;53.184;8.216;2023-02-15T08:26:31;18.50;;;11.77;;
1206;SDS011;593;53.184;8.216;2023-02-15T08:28:57;15.52;;;12.18;;
1206;SDS011;593;53.184;8.216;2023-02-15T08:31:23;16.67;;;13.75;;
1206;SDS011;593;53.184;8.216;2023-02-15T08:33:49;17.37;;;13.13;;
1206;SDS011;593;53.184;8.216;2023-02-15T08:36:20;18.83;;;13.95;;
1206;SDS011;593;53.184;8.216;2023-02-15T08:38:47;17.98;;;12.95;;
1206;SDS011;593;53.184;8.216;2023-02-15T08:41:17;18.00;;;13.40;;
1206;SDS011;593;53.184;8.216;2023-02-15T08:43:48;19.25;;;13.75;;
1206;SDS011;593;53.184;8.216;2023-02-15T08:46:17;20.25;;;15.10;;
1206;SDS011;593;53.184;8.216;2023-02-15T08:48:43;22.67;;;15.27;;
1206;SDS011;593;53.184;8.216;2023-02-15T08:51:10;18.95;;;14.93;;
1206;SDS011;593;53.184;8.216;2023-02-15T08:53:42;17.52;;;13.38;;
1206;SDS011;593;53.184;8.216;2023-02-15T08:56:10;21.73;;;15.48;;
1206;SDS011;593;53.184;8.216;2023-02-15T08:58:37;23.25;;;15.43;;
1206;SDS011;593;53.184;8.216;2023-02-15T09:04:00;22.85;;;16.40;;
1206;SDS011;593;53.184;8.216;2023-02-15T09:06:29;22.27;;;15.02;;
1206;SDS011;593;53.184;8.216;2023-02-15T09:08:55;21.50;;;15.40;;
1206;SDS011;593;53.184;8.216;2023-02-15T09:11:22;28.75;;;17.90;;
1206;SDS011;593;53.184;8.216;2023-02-15T09:13:57;26.25;;;18.33;;
1206;SDS011;593;53.184;8.216;2023-02-15T09:16:32;25.27;;;17.60;;
1206;SDS011;593;53.184;8.216;2023-02-15T09:18:58;27.52;;;20.08;;
1206;SDS011;593;53.184;8.216;2023-02-15T09:21:27;28.75;;;18.10;;
1206;SDS011;593;53.184;8.216;2023-02-15T09:23:59;24.60;;;19.42;;
1206;SDS011;593;53.184;8.216;2023-02-15T09:26:27;31.88;;;20.85;;
1206;SDS011;593;53.184;8.216;2023-02-15T09:28:55;29.85;;;20.20;;
1206;SDS011;593;53.184;8.216;2023-02-15T09:31:29;36.10;;;22.35;;
1206;SDS011;593;53.184;8.216;2023-02-15T09:33:56;27.00;;;20.80;;
1206;SDS011;593;53.184;8.216;2023-02-15T09:36:26;29.63;;;19.95;;
1206;SDS011;593;53.184;8.216;2023-02-15T09:46:57;36.03;;;23.70;;
1206;SDS011;593;53.184;8.216;2023-02-15T09:49:49;28.98;;;22.08;;
1206;SDS011;593;53.184;8.216;2023-02-15T10:03:54;33.42;;;22.77;;
1206;SDS011;593;53.184;8.216;2023-02-15T10:06:55;37.00;;;24.42;;
1206;SDS011;593;53.184;8.216;2023-02-15T10:21:03;40.63;;;24.70;;
1206;SDS011;593;53.184;8.216;2023-02-15T10:23:59;38.20;;;24.75;;
1206;SDS011;593;53.184;8.216;2023-02-15T10:26:41;38.88;;;25.67;;
1206;SDS011;593;53.184;8.216;2023-02-15T10:29:11;37.75;;;25.02;;
1206;SDS011;593;53.184;8.216;2023-02-15T10:34:31;32.55;;;24.38;;
1206;SDS011;593;53.184;8.216;2023-02-15T10:43:08;34.38;;;24.67;;
1206;SDS011;593;53.184;8.216;2023-02-15T10:45:56;31.77;;;23.45;;
1206;SDS011;593;53.184;8.216;2023-02-15T10:48:37;40.90;;;25.02;;
1206;SDS011;593;53.184;8.216;2023-02-15T10:51:21;34.10;;;25.20;;
1206;SDS011;593;53.184;8.216;2023-02-15T10:56:34;32.72;;;25.05;;
1206;SDS011;593;53.184;8.216;2023-02-15T11:01:50;38.60;;;24.17;;
1206;SDS011;593;53.184;8.216;2023-02-15T11:07:18;30.77;;;23.50;;
1206;SDS011;593;53.184;8.216;2023-02-15T11:09:49;38.85;;;25.90;;
1206;SDS011;593;53.184;8.216;2023-02-15T11:12:21;32.95;;;24.88;;
1206;SDS011;593;53.184;8.216;2023-02-15T11:14:58;29.23;;;22.50;;
1206;SDS011;593;53.184;8.216;2023-02-15T11:17:33;38.13;;;27.02;;
1206;SDS011;593;53.184;8.216;2023-02-15T11:20:16;33.55;;;23.70;;
1206;SDS011;593;53.184;8.216;2023-02-15T11:22:49;31.63;;;24.50;;
1206;SDS011;593;53.184;8.216;2023-02-15T11:25:19;33.83;;;25.45;;
1206;SDS011;593;53.184;8.216;2023-02-15T11:27:49;42.10;;;27.27;;
1206;SDS011;593;53.184;8.216;2023-02-15T11:30:23;39.13;;;26.27;;
1206;SDS011;593;53.184;8.216;2023-02-15T11:32:55;39.05;;;26.88;;
1206;SDS011;593;53.184;8.216;2023-02-15T11:35:31;33.67;;;26.33;;
1206;SDS011;593;53.184;8.216;2023-02-15T11:40:31;37.58;;;26.30;;
1206;SDS011;593;53.184;8.216;2023-02-15T11:43:43;43.30;;;25.95;;
1206;SDS011;593;53.184;8.216;2023-02-15T11:46:01;35.55;;;23.80;;
1206;SDS011;593;53.184;8.216;2023-02-15T11:48:26;44.27;;;27.70;;
1206;SDS011;593;53.184;8.216;2023-02-15T11:50:56;37.95;;;27.40;;
1206;SDS011;593;53.184;8.216;2023-02-15T11:53:22;39.00;;;27.37;;
1206;SDS011;593;53.184;8.216;2023-02-15T11:55:52;34.70;;;25.23;;
1206;SDS011;593;53.184;8.216;2023-02-15T11:58:30;35.75;;;25.98;;
1206;SDS011;593;53.184;8.216;2023-02-15T12:01:16;36.67;;;27.02;;
1206;SDS011;593;53.184;8.216;2023-02-15T12:03:52;43.30;;;27.58;;
1206;SDS011;593;53.184;8.216;2023-02-15T12:06:29;37.95;;;24.95;;
1206;SDS011;593;53.184;8.216;2023-02-15T12:11:29;38.90;;;27.63;;
1206;SDS011;593;53.184;8.216;2023-02-15T12:14:00;37.30;;;27.70;;
1206;SDS011;593;53.184;8.216;2023-02-15T12:16:28;38.22;;;27.67;;
1206;SDS011;593;53.184;8.216;2023-02-15T12:19:04;38.70;;;26.77;;
1206;SDS011;593;53.184;8.216;2023-02-15T12:21:31;35.90;;;26.47;;
1206;SDS011;593;53.184;8.216;2023-02-15T12:24:24;37.42;;;26.05;;
1206;SDS011;593;53.184;8.216;2023-02-15T12:27:15;41.63;;;28.33;;
1206;SDS011;593;53.184;8.216;2023-02-15T12:29:45;39.55;;;27.23;;
1206;SDS011;593;53.184;8.216;2023-02-15T12:32:19;40.47;;;27.25;;
1206;SDS011;593;53.184;8.216;2023-02-15T12:34:50;42.10;;;28.50;;
1206;SDS011;593;53.184;8.216;2023-02-15T12:37:17;34.45;;;25.45;;
1206;SDS011;593;53.184;8.216;2023-02-15T12:39:51;39.05;;;28.02;;
1206;SDS011;593;53.184;8.216;2023-02-15T12:42:17;37.35;;;27.13;;
1206;SDS011;593;53.184;8.216;2023-02-15T12:44:54;35.00;;;28.10;;
1206;SDS011;593;53.184;8.216;2023-02-15T12:47:20;37.60;;;27.45;;
1206;SDS011;593;53.184;8.216;2023-02-15T12:50:07;40.58;;;28.33;;
1206;SDS011;593;53.184;8.216;2023-02-15T12:52:47;34.88;;;25.80;;
1206;SDS011;593;53.184;8.216;2023-02-15T12:55:19;41.10;;;27.33;;
1206;SDS011;593;53.184;8.216;2023-02-15T12:57:47;41.67;;;27.13;;
1206;SDS011;593;53.184;8.216;2023-02-15T13:02:50;39.15;;;26.65;;
1206;SDS011;593;53.184;8.216;2023-02-15T13:07:56;37.80;;;27.30;;
1206;SDS011;593;53.184;8.216;2023-02-15T13:10:26;39.00;;;26.27;;
1206;SDS011;593;53.184;8.216;2023-02-15T13:12:54;34.50;;;25.50;;
1206;SDS011;593;53.184;8.216;2023-02-15T13:15:44;39.55;;;25.75;;
1206;SDS011;593;53.184;8.216;2023-02-15T13:18:15;32.15;;;24.92;;
1206;SDS011;593;53.184;8.216;2023-02-15T13:20:44;38.00;;;25.70;;
1206;SDS011;593;53.184;8.216;2023-02-15T13:23:24;33.03;;;22.65;;
1206;SDS011;593;53.184;8.216;2023-02-15T13:25:56;35.55;;;25.92;;
1206;SDS011;593;53.184;8.216;2023-02-15T13:28:26;33.72;;;23.85;;
1206;SDS011;593;53.184;8.216;2023-02-15T13:31:01;36.03;;;23.40;;
1206;SDS011;593;53.184;8.216;2023-02-15T13:33:30;37.63;;;24.93;;
1206;SDS011;593;53.184;8.216;2023-02-15T13:36:04;37.72;;;22.75;;
1206;SDS011;593;53.184;8.216;2023-02-15T13:41:20;34.40;;;24.48;;
1206;SDS011;593;53.184;8.216;2023-02-15T13:46:45;34.03;;;24.45;;
1206;SDS011;593;53.184;8.216;2023-02-15T13:54:44;33.75;;;23.83;;
1206;SDS011;593;53.184;8.216;2023-02-15T13:57:47;35.67;;;23.63;;
1206;SDS011;593;53.184;8.216;2023-02-15T14:14:15;31.90;;;24.23;;
1206;SDS011;593;53.184;8.216;2023-02-15T14:19:46;28.52;;;22.33;;
1206;SDS011;593;53.184;8.216;2023-02-15T14:25:15;31.63;;;23.58;;
1206;SDS011;593;53.184;8.216;2023-02-15T14:31:04;31.65;;;24.30;;
1206;SDS011;593;53.184;8.216;2023-02-15T14:33:35;30.80;;;23.23;;
1206;SDS011;593;53.184;8.216;2023-02-15T14:36:05;30.02;;;22.02;;
1206;SDS011;593;53.184;8.216;2023-02-15T14:38:37;34.58;;;23.80;;
1206;SDS011;593;53.184;8.216;2023-02-15T14:44:15;34.05;;;23.55;;
1206;SDS011;593;53.184;8.216;2023-02-15T14:49:25;30.80;;;22.02;;
1206;SDS011;593;53.184;8.216;2023-02-15T14:52:01;29.92;;;21.20;;
1206;SDS011;593;53.184;8.216;2023-02-15T15:04:56;30.33;;;20.85;;
1206;SDS011;593;53.184;8.216;2023-02-15T15:07:46;30.13;;;21.90;;
1206;SDS011;593;53.184;8.216;2023-02-15T15:12:51;29.00;;;20.97;;
1206;SDS011;593;53.184;8.216;2023-02-15T15:17:52;27.90;;;19.33;;
1206;SDS011;593;53.184;8.216;2023-02-15T15:25:43;28.27;;;20.20;;
1206;SDS011;593;53.184;8.216;2023-02-15T15:28:21;27.40;;;19.98;;
1206;SDS011;593;53.184;8.216;2023-02-15T15:30:59;31.33;;;20.00;;
1206;SDS011;593;53.184;8.216;2023-02-15T15:36:32;28.92;;;19.73;;
1206;SDS011;593;53.184;8.216;2023-02-15T15:42:23;29.10;;;20.20;;
1206;SDS011;593;53.184;8.216;2023-02-15T15:45:27;30.30;;;20.27;;
1206;SDS011;593;53.184;8.216;2023-02-15T15:50:53;34.25;;;22.70;;
1206;SDS011;593;53.184;8.216;2023-02-15T15:53:24;28.40;;;19.27;;
1206;SDS011;593;53.184;8.216;2023-02-15T15:55:54;28.65;;;21.15;;
1206;SDS011;593;53.184;8.216;2023-02-15T15:58:22;28.15;;;19.38;;
1206;SDS011;593;53.184;8.216;2023-02-15T16:00:49;25.17;;;20.42;;
1206;SDS011;593;53.184;8.216;2023-02-15T16:03:21;29.80;;;20.02;;
1206;SDS011;593;53.184;8.216;2023-02-15T16:05:48;31.52;;;20.77;;
1206;SDS011;593;53.184;8.216;2023-02-15T16:08:33;30.80;;;21.70;;
1206;SDS011;593;53.184;8.216;2023-02-15T16:11:22;28.87;;;19.67;;
1206;SDS011;593;53.184;8.216;2023-02-15T16:13:50;27.80;;;20.90;;
1206;SDS011;593;53.184;8.216;2023-02-15T16:16:25;27.60;;;21.77;;
1206;SDS011;593;53.184;8.216;2023-02-15T16:18:53;35.58;;;21.90;;
1206;SDS011;593;53.184;8.216;2023-02-15T16:21:21;30.03;;;20.23;;
1206;SDS011;593;53.184;8.216;2023-02-15T16:29:32;28.87;;;20.93;;
1206;SDS011;593;53.184;8.216;2023-02-15T16:32:03;27.65;;;20.15;;
1206;SDS011;593;53.184;8.216;2023-02-15T16:34:30;28.63;;;20.88;;
1206;SDS011;593;53.184;8.216;2023-02-15T16:37:12;29.20;;;20.70;;
1206;SDS011;593;53.184;8.216;2023-02-15T16:39:40;30.52;;;20.92;;
1206;SDS011;593;53.184;8.216;2023-02-15T16:42:06;30.75;;;21.30;;
1206;SDS011;593;53.184;8.216;2023-02-15T16:44:33;27.05;;;20.67;;
1206;SDS011;593;53.184;8.216;2023-02-15T16:46:58;31.90;;;21.33;;
1206;SDS011;593;53.184;8.216;2023-02-15T16:49:26;25.35;;;18.75;;
1206;SDS011;593;53.184;8.216;2023-02-15T16:51:55;30.33;;;21.02;;
1206;SDS011;593;53.184;8.216;2023-02-15T16:54:23;26.73;;;20.40;;
1206;SDS011;593;53.184;8.216;2023-02-15T16:56:50;30.48;;;20.17;;
1206;SDS011;593;53.184;8.216;2023-02-15T16:59:19;32.33;;;21.65;;
1206;SDS011;593;53.184;8.216;2023-02-15T17:01:47;31.15;;;20.20;;
1206;SDS011;593;53.184;8.216;2023-02-15T17:04:25;30.13;;;21.77;;
1206;SDS011;593;53.184;8.216;2023-02-15T17:09:54;27.70;;;20.73;;
1206;SDS011;593;53.184;8.216;2023-02-15T17:18:01;25.73;;;20.52;;
1206;SDS011;593;53.184;8.216;2023-02-15T17:20:57;28.98;;;19.25;;
1206;SDS011;593;53.184;8.216;2023-02-15T17:23:30;26.90;;;18.95;;
1206;SDS011;593;53.184;8.216;2023-02-15T17:25:57;27.27;;;19.95;;
1206;SDS011;593;53.184;8.216;2023-02-15T17:28:26;33.95;;;19.23;;
1206;SDS011;593;53.184;8.216;2023-02-15T17:30:56;27.80;;;20.42;;
1206;SDS011;593;53.184;8.216;2023-02-15T17:38:31;27.27;;;21.45;;
1206;SDS011;593;53.184;8.216;2023-02-15T17:40:57;27.95;;;20.40;;
1206;SDS011;593;53.184;8.216;2023-02-15T17:43:23;28.93;;;20.83;;
1206;SDS011;593;53.184;8.216;2023-02-15T17:45:50;24.67;;;20.10;;
1206;SDS011;593;53.184;8.216;2023-02-15T17:48:24;25.92;;;19.67;;
1206;SDS011;593;53.184;8.216;2023-02-15T17:50:55;28.88;;;20.73;;
1206;SDS011;593;53.184;8.216;2023-02-15T17:53:20;27.27;;;19.83;;
1206;SDS011;593;53.184;8.216;2023-02-15T17:55:46;26.20;;;20.30;;
1206;SDS011;593;53.184;8.216;2023-02-15T17:58:12;25.00;;;18.43;;
1206;SDS011;593;53.184;8.216;2023-02-15T18:00:41;27.95;;;18.73;;
1206;SDS011;593;53.184;8.216;2023-02-15T18:03:46;27.65;;;19.90;;
1206;SDS011;593;53.184;8.216;2023-02-15T18:06:34;27.35;;;18.88;;
1206;SDS011;593;53.184;8.216;2023-02-15T18:09:20;27.88;;;19.52;;
1206;SDS011;593;53.184;8.216;2023-02-15T18:14:43;29.35;;;19.48;;
1206;SDS011;593;53.184;8.216;2023-02-15T18:17:10;26.50;;;17.63;;
1206;SDS011;593;53.184;8.216;2023-02-15T18:19:38;26.77;;;18.73;;
1206;SDS011;593;53.184;8.216;2023-02-15T18:22:11;23.30;;;18.50;;
1206;SDS011;593;53.184;8.216;2023-02-15T18:24:38;27.55;;;20.52;;
1206;SDS011;593;53.184;8.216;2023-02-15T18:27:04;28.70;;;21.20;;
1206;SDS011;593;53.184;8.216;2023-02-15T18:29:30;21.73;;;18.50;;
1206;SDS011;593;53.184;8.216;2023-02-15T18:31:56;25.55;;;18.25;;
1206;SDS011;593;53.184;8.216;2023-02-15T18:34:31;25.15;;;17.45;;
1206;SDS011;593;53.184;8.216;2023-02-15T18:37:00;29.50;;;19.60;;
1206;SDS011;593;53.184;8.216;2023-02-15T18:44:47;23.48;;;19.08;;
1206;SDS011;593;53.184;8.216;2023-02-15T18:47:13;24.58;;;19.88;;
1206;SDS011;593;53.184;8.216;2023-02-15T18:49:39;29.03;;;18.60;;
1206;SDS011;593;53.184;8.216;2023-02-15T18:52:04;25.80;;;19.63;;
1206;SDS011;593;53.184;8.216;2023-02-15T18:54:30;25.40;;;18.50;;
1206;SDS011;593;53.184;8.216;2023-02-15T18:56:56;28.30;;;19.20;;
1206;SDS011;593;53.184;8.216;2023-02-15T18:59:24;23.27;;;18.38;;
1206;SDS011;593;53.184;8.216;2023-02-15T19:01:52;25.05;;;19.50;;
1206;SDS011;593;53.184;8.216;2023-02-15T19:04:18;21.42;;;17.80;;
1206;SDS011;593;53.184;8.216;2023-02-15T19:06:44;26.77;;;20.10;;
1206;SDS011;593;53.184;8.216;2023-02-15T19:09:15;27.80;;;19.52;;
1206;SDS011;593;53.184;8.216;2023-02-15T19:11:46;27.55;;;18.65;;
1206;SDS011;593;53.184;8.216;2023-02-15T19:14:28;31.40;;;21.20;;
1206;SDS011;593;53.184;8.216;2023-02-15T19:16:55;27.35;;;20.00;;
1206;SDS011;593;53.184;8.216;2023-02-15T19:19:21;26.00;;;19.40;;
1206;SDS011;593;53.184;8.216;2023-02-15T19:21:47;24.87;;;19.50;;
1206;SDS011;593;53.184;8.216;2023-02-15T19:24:14;28.90;;;21.07;;
1206;SDS011;593;53.184;8.216;2023-02-15T19:26:45;29.83;;;19.92;;
1206;SDS011;593;53.184;8.216;2023-02-15T19:29:13;28.92;;;20.95;;
1206;SDS011;593;53.184;8.216;2023-02-15T19:31:42;31.67;;;21.75;;
1206;SDS011;593;53.184;8.216;2023-02-15T19:34:14;26.97;;;19.63;;
1206;SDS011;593;53.184;8.216;2023-02-15T19:36:50;30.40;;;18.60;;
1206;SDS011;593;53.184;8.216;2023-02-15T19:39:31;26.65;;;19.75;;